Briefing drone pour Meximieux

Rechercher une autre localisation

Conditions de vol :


Nous sommes le : Vendredi 03 avril 2020
Il est 22:57 UTC (00:57 LT)

Lever de soleil : 04:47 UTC (06:47 LT)
Coucher de soleil : 18:37 UTC (20:37 LT)

Météo

L'essentiel des conditions de vol

VIGILANCE MÉTÉO FRANCE - Ain (01)
Pas de vigilances particulieres
CARTE TEMSI
CARTES DES FRONTS
METAR de LFLL
LFLL 022230Z AUTO 29002KT CAVOK 07/M01 Q1014 NOSIG

Date d'émission: 02/04/2020
Heure d'émission: 22:30 UTC
Vent: 290° pour 2 KT (4 km/h)
Visibilité horizontale: > 10 km
Plafond : Plafond et visibilité OK (CAVOK)
Température: 7 °C
Point de rosée: -1 °C
Humidité: 57%
Pression (QNH): 1014 hPa
Conditions: Pas de changement dans les 2 heures (NOSIG)
TAF de LFLL
LFLL 021700Z 0218/0324 36005KT CAVOK BECMG 0308/0310 36012KT

Conditions prévues :

Heure d'émission : Bulletin éffectué le 02 à 18:00 UTC
Prévision : Valide du 02 a 18:00 UTC au 03 a 23:59 UTC
Vent : 360° pour 5 KT (9 km/h)
Visibilité : > 10 km

Devenant :

Prévision : Valide du 03 a 08:00 UTC au 03 a 10:00 UTC
Vent : 360° pour 12 KT (22 km/h)
WEBCAM POUR MEXIMIEUX

Réglementation

Voler en sécurité

CARTES AERONAUTIQUE 1/500.000
CARTES VAC (LFLL)
SUP AIP




Chargement des AIP...
NOTAM (MEXIMIEUX + Terrain à proximité / FIR )




Chargement des NOTAMS...
CONTACT PREFECTURE 01


Avertissement : Les données mises à disposition sont indicatives. Oxygène Drone ne pourra être tenu responsable de dégâts causés aux biens et aux personnes.